Time;durP1;ratioP1;P1;durP2;ratioP2;P2;SDS_P1;SDS_P2;PMS_P1;PMS_P2;Temp;Humidity;BMP_temperature;BMP_pressure;BME280_temperature;BME280_humidity;BME280_pressure;Samples;Min_cycle;Max_cycle;Signal;HPM_P1;HPM_P2
2023/10/04 00:00:27;;;;;;;6.97;5.43;;;12.90;1.00;;;;;;5043541;28;20947;-71
2023/10/04 00:02:54;;;;;;;15.77;2.90;;;12.80;1.00;;;;;;5052256;28;20486;-74
2023/10/04 00:05:24;;;;;;;5.97;2.70;;;12.80;1.00;;;;;;5050567;28;22260;-74
2023/10/04 00:07:53;;;;;;;5.10;2.30;;;12.90;1.00;;;;;;5053658;28;20972;-69
2023/10/04 00:10:21;;;;;;;7.93;3.20;;;12.90;1.00;;;;;;5053038;28;20440;-72
2023/10/04 00:12:47;;;;;;;8.70;3.03;;;12.90;1.00;;;;;;5052626;28;20492;-69
2023/10/04 00:15:13;;;;;;;11.40;2.93;;;12.90;1.00;;;;;;5050857;28;20461;-70
2023/10/04 00:17:44;;;;;;;9.50;4.20;;;12.90;1.00;;;;;;5053203;28;20404;-72
2023/10/04 00:20:16;;;;;;;8.20;4.07;;;12.90;1.00;;;;;;5053350;28;20380;-74
2023/10/04 00:22:43;;;;;;;7.73;2.80;;;12.80;1.00;;;;;;5051289;28;20512;-74
2023/10/04 00:25:11;;;;;;;7.40;3.20;;;12.90;1.00;;;;;;5051440;28;20429;-68
2023/10/04 00:27:41;;;;;;;10.20;2.80;;;12.80;1.00;;;;;;5052069;28;20433;-74
2023/10/04 00:30:14;;;;;;;5.30;2.77;;;12.80;1.00;;;;;;5052045;28;20428;-71
2023/10/04 00:32:41;;;;;;;3.50;2.53;;;12.90;1.00;;;;;;5052059;28;20853;-70
2023/10/04 00:35:17;;;;;;;4.57;2.43;;;12.90;1.00;;;;;;5051216;28;20457;-68
2023/10/04 00:37:44;;;;;;;12.57;2.73;;;12.90;1.00;;;;;;5053203;28;20405;-73
2023/10/04 00:40:18;;;;;;;8.03;3.07;;;12.90;1.00;;;;;;5052593;28;20897;-74
2023/10/04 00:42:49;;;;;;;7.23;4.23;;;12.90;1.00;;;;;;5050185;28;20462;-73
2023/10/04 00:45:22;;;;;;;8.30;3.57;;;12.90;1.00;;;;;;5051397;28;20786;-74
2023/10/04 00:47:56;;;;;;;6.40;2.50;;;12.90;1.00;;;;;;5053175;28;20427;-74
2023/10/04 00:50:27;;;;;;;5.00;2.57;;;12.90;1.00;;;;;;5050811;28;20519;-70
2023/10/04 00:53:01;;;;;;;6.97;2.80;;;12.90;1.00;;;;;;5050674;28;20429;-71
2023/10/04 00:55:27;;;;;;;9.83;2.93;;;12.80;1.00;;;;;;5051241;28;20861;-69
2023/10/04 00:57:56;;;;;;;8.90;2.60;;;12.90;1.00;;;;;;5052223;28;20398;-72
2023/10/04 01:00:22;;;;;;;3.80;1.80;;;12.90;2.10;;;;;;5050523;28;20410;-68
2023/10/04 01:02:49;;;;;;;7.97;2.40;;;12.90;1.00;;;;;;5051911;28;20798;-74
2023/10/04 01:05:23;;;;;;;4.43;2.67;;;12.90;1.00;;;;;;5054176;28;20472;-73
2023/10/04 01:07:49;;;;;;;14.40;2.87;;;12.80;1.00;;;;;;5056860;28;20401;-73
2023/10/04 01:10:16;;;;;;;7.63;2.47;;;12.80;1.00;;;;;;5056899;28;20456;-73
2023/10/04 01:12:52;;;;;;;6.20;3.10;;;12.80;1.00;;;;;;5056832;28;20402;-70
2023/10/04 01:18:04;;;;;;;6.10;2.70;;;12.90;4.20;;;;;;5056129;28;20495;-70
2023/10/04 01:20:30;;;;;;;12.03;3.17;;;12.90;6.80;;;;;;5053252;28;20824;-74
2023/10/04 01:23:06;;;;;;;8.90;2.30;;;13.00;10.80;;;;;;5055516;28;20946;-69
2023/10/04 01:25:39;;;;;;;10.30;2.90;;;13.00;10.30;;;;;;5055657;28;20918;-73
2023/10/04 01:28:12;;;;;;;9.37;2.23;;;12.90;7.30;;;;;;5056389;28;20744;-73
2023/10/04 01:30:41;;;;;;;6.53;2.63;;;12.90;5.10;;;;;;5052390;28;20526;-72
2023/10/04 01:33:15;;;;;;;13.93;2.77;;;12.90;3.80;;;;;;5056499;28;20724;-69
2023/10/04 01:35:45;;;;;;;18.20;2.70;;;12.90;4.60;;;;;;5053675;28;20449;-69
2023/10/04 01:38:11;;;;;;;16.33;3.40;;;12.90;7.20;;;;;;5055777;28;20372;-69
2023/10/04 01:40:39;;;;;;;10.50;3.10;;;12.90;10.00;;;;;;5056360;28;20413;-69
2023/10/04 01:43:15;;;;;;;10.63;3.27;;;12.90;10.30;;;;;;5054985;28;20380;-74
2023/10/04 01:45:52;;;;;;;11.97;3.27;;;12.90;13.40;;;;;;5025634;28;20464;-69
2023/10/04 01:48:21;;;;;;;18.27;3.53;;;12.90;13.10;;;;;;5036172;28;20398;-73
2023/10/04 01:50:48;;;;;;;8.90;2.70;;;12.90;14.90;;;;;;5042149;28;20490;-72
2023/10/04 01:53:15;;;;;;;5.47;2.60;;;12.90;16.00;;;;;;5054841;28;20412;-70
2023/10/04 01:55:41;;;;;;;5.53;3.03;;;13.00;18.90;;;;;;5055052;28;20929;-69
2023/10/04 01:58:08;;;;;;;6.23;2.40;;;13.00;20.60;;;;;;5056061;28;20402;-70
2023/10/04 02:00:34;;;;;;;5.20;3.47;;;13.00;23.00;;;;;;5051521;28;20797;-70
2023/10/04 02:03:01;;;;;;;9.63;2.63;;;12.90;30.40;;;;;;5054720;28;20516;-74
2023/10/04 02:05:37;;;;;;;14.53;4.27;;;13.00;35.10;;;;;;5053997;28;20445;-74
2023/10/04 02:08:07;;;;;;;7.37;2.93;;;12.90;35.00;;;;;;5055716;28;20392;-72
2023/10/04 02:10:36;;;;;;;13.40;3.47;;;12.90;35.00;;;;;;5055255;28;20511;-70
2023/10/04 02:13:06;;;;;;;9.60;2.90;;;12.90;35.00;;;;;;5055221;28;20393;-70
2023/10/04 02:15:34;;;;;;;8.43;2.67;;;12.90;35.00;;;;;;5051385;28;20821;-71
2023/10/04 02:18:01;;;;;;;10.50;2.70;;;12.90;39.70;;;;;;5054791;28;20587;-69
2023/10/04 02:20:31;;;;;;;10.73;3.63;;;12.90;41.20;;;;;;5053007;28;20380;-71
2023/10/04 02:23:00;;;;;;;6.90;3.07;;;12.90;43.60;;;;;;5035487;28;20422;-73
2023/10/04 02:25:26;;;;;;;10.83;2.73;;;13.00;53.20;;;;;;5034274;28;20448;-73
2023/10/04 02:27:52;;;;;;;7.80;3.43;;;13.00;61.20;;;;;;5034748;28;20879;-69
2023/10/04 02:30:23;;;;;;;16.90;3.40;;;13.10;62.80;;;;;;5045733;28;20461;-73
2023/10/04 02:32:50;;;;;;;9.27;3.60;;;13.10;64.90;;;;;;5053828;28;20433;-68
2023/10/04 02:35:34;;;;;;;8.33;3.13;;;13.10;66.20;;;;;;5054481;28;20440;-74
2023/10/04 02:38:09;;;;;;;12.83;3.53;;;13.10;70.00;;;;;;5051084;28;20436;-70
2023/10/04 02:40:37;;;;;;;7.73;4.10;;;13.10;72.40;;;;;;5035329;28;20551;-69
2023/10/04 02:43:04;;;;;;;9.13;4.93;;;13.10;74.40;;;;;;5035190;28;20414;-70
2023/10/04 02:45:30;;;;;;;12.57;2.93;;;13.10;74.40;;;;;;5044358;28;20870;-69
2023/10/04 02:47:56;;;;;;;13.77;3.13;;;13.10;80.80;;;;;;5053055;28;20539;-72
2023/10/04 02:50:23;;;;;;;8.60;2.90;;;13.10;82.90;;;;;;5055015;28;20456;-68
2023/10/04 02:52:52;;;;;;;6.27;3.20;;;13.10;82.80;;;;;;5054004;28;20436;-69
2023/10/04 02:55:19;;;;;;;10.00;2.33;;;13.10;79.80;;;;;;5054020;28;20424;-73
2023/10/04 02:57:49;;;;;;;7.87;2.53;;;13.10;82.30;;;;;;5054764;28;20481;-69
2023/10/04 03:00:16;;;;;;;9.70;2.67;;;13.10;82.20;;;;;;5051769;28;20527;-70
2023/10/04 03:02:53;;;;;;;11.40;2.47;;;13.00;70.70;;;;;;5054667;28;20467;-74
2023/10/04 03:05:19;;;;;;;5.50;2.83;;;13.00;70.80;;;;;;5048864;28;20537;-74
2023/10/04 03:07:50;;;;;;;8.97;2.47;;;13.00;73.30;;;;;;5054198;28;20410;-70
2023/10/04 03:10:24;;;;;;;9.20;3.13;;;13.10;67.40;;;;;;5054565;28;20503;-71
2023/10/04 03:12:58;;;;;;;9.13;2.30;;;13.10;68.80;;;;;;5054536;28;20405;-70
2023/10/04 03:15:24;;;;;;;5.40;3.00;;;13.10;71.70;;;;;;5050758;28;20501;-69
2023/10/04 03:17:54;;;;;;;10.67;3.97;;;13.10;68.60;;;;;;5054469;28;20802;-73
2023/10/04 03:20:21;;;;;;;11.50;2.70;;;13.10;63.90;;;;;;5052077;28;20183;-71
2023/10/04 03:22:48;;;;;;;13.60;2.93;;;13.00;41.70;;;;;;5053504;28;20472;-74
2023/10/04 03:25:17;;;;;;;15.07;3.33;;;13.00;41.00;;;;;;5053336;28;20425;-70
2023/10/04 03:27:44;;;;;;;9.53;3.67;;;13.00;42.00;;;;;;5052939;28;20409;-71
2023/10/04 03:30:14;;;;;;;10.53;3.30;;;13.00;35.20;;;;;;5052223;28;20511;-75
2023/10/04 03:32:44;;;;;;;9.50;2.43;;;12.90;37.00;;;;;;5051930;28;20482;-73
2023/10/04 03:35:14;;;;;;;4.23;2.90;;;13.00;35.20;;;;;;5051097;28;20449;-74
2023/10/04 03:37:50;;;;;;;5.80;3.20;;;12.90;23.20;;;;;;5053735;28;20412;-73
2023/10/04 03:40:17;;;;;;;13.17;4.13;;;12.90;19.30;;;;;;5054041;28;20405;-70
2023/10/04 03:42:44;;;;;;;9.43;3.00;;;12.90;11.40;;;;;;5053425;28;20417;-74
2023/10/04 03:45:11;;;;;;;8.00;3.00;;;12.90;4.00;;;;;;5049320;28;20477;-73
2023/10/04 03:47:39;;;;;;;7.40;2.83;;;12.90;1.30;;;;;;5052492;28;20422;-70
2023/10/04 03:50:09;;;;;;;8.80;3.13;;;12.90;1.00;;;;;;5052464;28;20456;-73
2023/10/04 03:52:35;;;;;;;6.33;3.63;;;12.90;1.00;;;;;;5053835;28;20442;-73
2023/10/04 03:55:02;;;;;;;7.00;2.43;;;12.90;1.00;;;;;;5035012;28;20941;-74
2023/10/04 03:57:28;;;;;;;7.13;2.90;;;12.90;1.00;;;;;;5053748;28;20451;-71
2023/10/04 03:59:54;;;;;;;15.83;3.80;;;12.90;1.00;;;;;;5052689;28;20471;-74
2023/10/04 04:02:20;;;;;;;10.63;2.53;;;12.90;1.00;;;;;;5049396;28;20445;-70
2023/10/04 04:04:46;;;;;;;7.60;3.37;;;12.80;1.00;;;;;;5051685;28;20194;-73
2023/10/04 04:07:11;;;;;;;10.27;2.93;;;12.80;1.00;;;;;;5052375;28;20635;-71
2023/10/04 04:09:37;;;;;;;10.00;2.90;;;12.80;1.00;;;;;;5053461;28;20198;-74
2023/10/04 04:12:03;;;;;;;6.83;2.93;;;12.80;1.00;;;;;;5053604;28;20167;-75
2023/10/04 04:14:30;;;;;;;12.57;3.07;;;12.80;1.00;;;;;;5051228;28;20175;-72
2023/10/04 04:16:55;;;;;;;8.80;2.37;;;12.80;1.00;;;;;;5049188;28;20433;-74
2023/10/04 04:19:26;;;;;;;9.50;3.17;;;12.80;1.00;;;;;;5047822;28;20446;-70
2023/10/04 04:21:52;;;;;;;10.60;3.33;;;12.80;1.00;;;;;;5049903;28;20187;-71
2023/10/04 04:24:18;;;;;;;13.50;4.40;;;12.90;1.00;;;;;;5052476;28;20488;-75
2023/10/04 04:26:43;;;;;;;5.73;2.77;;;12.90;1.00;;;;;;5053221;28;21059;-71
2023/10/04 04:29:11;;;;;;;13.47;4.10;;;12.90;1.00;;;;;;5051249;28;20671;-68
2023/10/04 04:31:37;;;;;;;11.33;3.60;;;12.80;1.00;;;;;;5049986;28;20171;-75
2023/10/04 04:34:08;;;;;;;8.63;3.87;;;12.80;1.00;;;;;;5052401;28;20440;-69
2023/10/04 04:36:36;;;;;;;10.03;3.20;;;12.70;1.00;;;;;;5050551;28;20738;-69
2023/10/04 04:39:05;;;;;;;10.77;5.37;;;12.60;1.00;;;;;;5033992;28;20388;-69
2023/10/04 04:41:33;;;;;;;6.97;3.40;;;12.60;1.00;;;;;;5052904;28;20440;-69
2023/10/04 04:44:07;;;;;;;9.53;3.60;;;12.60;1.00;;;;;;5050860;28;20447;-69
2023/10/04 04:46:34;;;;;;;14.83;3.87;;;12.70;1.00;;;;;;5051833;28;20452;-71
2023/10/04 04:49:00;;;;;;;8.53;3.23;;;12.70;1.00;;;;;;5051803;28;20527;-71
2023/10/04 04:51:26;;;;;;;7.37;4.40;;;12.70;1.00;;;;;;5051779;28;20455;-74
2023/10/04 04:53:53;;;;;;;6.60;3.03;;;12.80;1.00;;;;;;5052391;28;20250;-72
2023/10/04 04:56:21;;;;;;;16.10;3.33;;;12.70;1.00;;;;;;5053090;28;20435;-74
2023/10/04 04:58:48;;;;;;;5.00;3.13;;;12.70;1.00;;;;;;5048283;28;20633;-72
2023/10/04 05:01:14;;;;;;;10.43;3.47;;;12.60;1.00;;;;;;5050255;28;20433;-76
2023/10/04 05:03:42;;;;;;;8.33;3.40;;;12.60;1.00;;;;;;5052082;28;20781;-75
2023/10/04 05:06:13;;;;;;;6.47;2.80;;;12.60;1.00;;;;;;5049837;28;20860;-69
2023/10/04 05:08:40;;;;;;;9.47;3.93;;;12.60;1.00;;;;;;5053789;28;20436;-75
2023/10/04 05:11:09;;;;;;;9.13;4.37;;;12.60;1.00;;;;;;5050654;28;20933;-70
2023/10/04 05:13:35;;;;;;;11.23;3.70;;;12.60;1.00;;;;;;5051376;28;20414;-69
2023/10/04 05:16:01;;;;;;;6.30;3.13;;;12.60;1.00;;;;;;5050860;28;20544;-75
2023/10/04 05:18:26;;;;;;;13.23;4.63;;;12.60;1.00;;;;;;5034352;28;20560;-70
2023/10/04 05:20:54;;;;;;;11.70;3.50;;;12.60;1.00;;;;;;5051599;28;20175;-75
2023/10/04 05:23:25;;;;;;;13.97;4.17;;;12.60;1.00;;;;;;5052936;28;20566;-70
2023/10/04 05:25:52;;;;;;;14.87;6.10;;;12.60;1.00;;;;;;5052043;28;20448;-75
2023/10/04 05:28:18;;;;;;;12.13;4.40;;;12.60;1.00;;;;;;5051457;28;20484;-75
2023/10/04 05:30:45;;;;;;;7.43;3.37;;;12.50;1.00;;;;;;5049915;28;20970;-70
2023/10/04 05:33:13;;;;;;;11.20;4.30;;;12.60;1.00;;;;;;5052318;28;20471;-77
2023/10/04 05:35:40;;;;;;;5.83;3.40;;;12.60;1.00;;;;;;5048565;28;20445;-76
2023/10/04 05:38:06;;;;;;;10.07;3.50;;;12.50;1.00;;;;;;5051557;28;20440;-71
2023/10/04 05:40:34;;;;;;;9.50;3.77;;;12.60;1.00;;;;;;5052674;28;20405;-70
2023/10/04 05:43:00;;;;;;;9.33;3.83;;;12.60;1.00;;;;;;5051337;28;20776;-72
2023/10/04 05:45:26;;;;;;;11.30;4.00;;;12.60;1.00;;;;;;5048654;28;20432;-72
2023/10/04 05:47:52;;;;;;;10.03;3.10;;;12.60;1.00;;;;;;5033690;28;20176;-76
2023/10/04 05:50:22;;;;;;;11.93;4.17;;;12.60;1.00;;;;;;5050321;28;20451;-76
2023/10/04 05:52:49;;;;;;;8.80;4.47;;;12.70;1.00;;;;;;5054600;28;20908;-76
2023/10/04 05:55:19;;;;;;;15.50;4.30;;;12.80;1.00;;;;;;5054856;28;20465;-71
2023/10/04 05:57:46;;;;;;;8.93;3.83;;;12.70;1.00;;;;;;5055662;28;20451;-76
2023/10/04 06:00:37;;;;;;;8.40;3.97;;;12.70;1.00;;;;;;5055633;28;20540;-76
2023/10/04 06:03:15;;;;;;;8.70;3.77;;;12.80;1.00;;;;;;5054447;28;20456;-70
2023/10/04 06:05:42;;;;;;;13.40;4.10;;;12.80;1.00;;;;;;5053583;28;20851;-69
2023/10/04 06:08:18;;;;;;;8.33;3.90;;;12.80;1.00;;;;;;5055554;28;20413;-73
2023/10/04 06:10:44;;;;;;;9.77;3.17;;;12.70;1.00;;;;;;5037633;28;20475;-72
2023/10/04 06:13:13;;;;;;;14.80;3.77;;;12.70;1.00;;;;;;5054611;28;20396;-76
2023/10/04 06:15:40;;;;;;;14.73;3.60;;;12.80;1.00;;;;;;5054107;28;20414;-72
2023/10/04 06:18:07;;;;;;;11.50;4.07;;;12.80;1.00;;;;;;5054333;28;20429;-71
2023/10/04 06:20:36;;;;;;;9.67;3.50;;;12.70;1.00;;;;;;5052559;28;20404;-75
2023/10/04 06:23:07;;;;;;;14.10;4.63;;;12.70;1.00;;;;;;5054252;28;20448;-70
2023/10/04 06:25:34;;;;;;;17.17;3.50;;;12.70;1.00;;;;;;5054146;28;20588;-78
2023/10/04 06:28:04;;;;;;;9.80;3.67;;;12.80;1.00;;;;;;5055311;28;20736;-76
2023/10/04 06:30:31;;;;;;;10.57;3.33;;;12.80;1.00;;;;;;5037245;28;20807;-73
2023/10/04 06:33:04;;;;;;;12.80;4.20;;;12.80;1.00;;;;;;5052736;28;20411;-70
2023/10/04 06:35:32;;;;;;;8.10;3.90;;;12.80;1.00;;;;;;5052838;28;20448;-74
2023/10/04 06:38:04;;;;;;;9.17;3.60;;;12.80;1.00;;;;;;5055231;28;20376;-70
2023/10/04 06:40:31;;;;;;;11.67;4.03;;;12.70;1.00;;;;;;5055030;28;20467;-75
2023/10/04 06:42:59;;;;;;;10.00;3.50;;;12.70;1.00;;;;;;5054952;28;20753;-70
2023/10/04 06:45:25;;;;;;;7.43;3.60;;;12.70;1.00;;;;;;5052727;28;20993;-73
2023/10/04 06:47:53;;;;;;;4.70;2.67;;;12.70;1.00;;;;;;5054935;28;20380;-75
2023/10/04 06:50:28;;;;;;;5.87;2.80;;;12.70;1.00;;;;;;5053180;28;20193;-75
2023/10/04 06:52:58;;;;;;;13.53;3.80;;;12.60;1.00;;;;;;5054532;28;20397;-72
2023/10/04 06:55:24;;;;;;;11.33;3.73;;;12.60;1.00;;;;;;5053693;28;20512;-71
2023/10/04 06:57:50;;;;;;;17.10;4.40;;;12.70;1.00;;;;;;5054739;28;20412;-73
2023/10/04 07:00:20;;;;;;;7.37;3.70;;;12.60;1.00;;;;;;5054662;28;20901;-75
2023/10/04 07:02:47;;;;;;;12.90;3.60;;;12.80;1.00;;;;;;5053247;28;20174;-71
2023/10/04 07:05:16;;;;;;;6.67;3.10;;;12.90;1.00;;;;;;5053611;28;20925;-70
2023/10/04 07:07:44;;;;;;;6.07;3.63;;;12.90;1.00;;;;;;5053878;28;20432;-72
2023/10/04 07:10:13;;;;;;;10.00;4.17;;;12.90;1.00;;;;;;5053111;28;20455;-74
2023/10/04 07:12:39;;;;;;;7.77;3.13;;;12.90;1.00;;;;;;5051971;28;20425;-75
2023/10/04 07:15:06;;;;;;;16.70;3.37;;;13.00;1.00;;;;;;5052538;28;20944;-74
2023/10/04 07:17:32;;;;;;;9.83;3.50;;;12.90;1.00;;;;;;5053307;28;20167;-75
2023/10/04 07:19:58;;;;;;;14.80;4.00;;;12.90;1.00;;;;;;5053891;28;20767;-70
2023/10/04 07:22:29;;;;;;;8.03;3.47;;;12.80;1.00;;;;;;5051731;28;20265;-71
2023/10/04 07:24:57;;;;;;;12.93;4.00;;;12.90;1.00;;;;;;5034051;28;20453;-71
2023/10/04 07:27:23;;;;;;;14.57;3.87;;;12.90;1.00;;;;;;5051773;28;20452;-71
2023/10/04 07:29:50;;;;;;;8.30;3.07;;;12.90;1.00;;;;;;5052688;28;20449;-72
2023/10/04 07:32:16;;;;;;;9.97;4.47;;;13.00;1.00;;;;;;5050384;28;20448;-69
2023/10/04 07:34:42;;;;;;;7.93;3.07;;;13.10;1.00;;;;;;5053048;28;20916;-72
2023/10/04 07:37:08;;;;;;;15.17;5.63;;;13.10;1.00;;;;;;5051730;28;20436;-71
2023/10/04 07:39:35;;;;;;;7.23;3.70;;;13.20;1.00;;;;;;5053884;28;20167;-76
2023/10/04 07:42:02;;;;;;;6.53;3.20;;;13.10;1.00;;;;;;5052773;28;20429;-73
2023/10/04 07:44:30;;;;;;;13.23;3.27;;;13.20;1.00;;;;;;5048901;28;20515;-74
2023/10/04 07:46:59;;;;;;;11.57;3.60;;;13.30;1.00;;;;;;5048950;28;20520;-73
2023/10/04 07:49:26;;;;;;;6.83;2.83;;;13.40;1.00;;;;;;5052630;28;20451;-71
2023/10/04 07:51:52;;;;;;;7.67;3.00;;;13.40;1.00;;;;;;5051081;28;20432;-71
2023/10/04 07:54:18;;;;;;;7.73;3.20;;;13.50;1.00;;;;;;5051623;28;20429;-74
2023/10/04 07:56:45;;;;;;;15.83;3.40;;;13.50;1.00;;;;;;5048963;28;20457;-72
2023/10/04 07:59:11;;;;;;;8.33;3.53;;;13.60;1.00;;;;;;5047286;28;20951;-71
2023/10/04 08:01:39;;;;;;;10.63;3.60;;;13.70;1.00;;;;;;5052256;28;20508;-76
2023/10/04 08:04:07;;;;;;;9.13;6.43;;;13.70;1.00;;;;;;5052372;28;20173;-70
2023/10/04 08:06:35;;;;;;;7.37;3.17;;;13.80;1.00;;;;;;5052168;28;20537;-75
2023/10/04 08:09:04;;;;;;;8.77;3.60;;;13.80;1.00;;;;;;5052549;28;20527;-74
2023/10/04 08:11:33;;;;;;;14.03;3.40;;;13.90;1.00;;;;;;5052145;28;20425;-68
2023/10/04 08:13:59;;;;;;;7.40;3.57;;;13.80;1.00;;;;;;5049434;28;20429;-69
2023/10/04 08:16:24;;;;;;;9.80;3.20;;;13.90;1.00;;;;;;5048580;28;22078;-73
2023/10/04 08:18:50;;;;;;;9.73;3.47;;;14.10;1.00;;;;;;5045932;28;20438;-74
2023/10/04 08:21:16;;;;;;;14.90;3.60;;;14.10;1.00;;;;;;5050502;28;20671;-76
2023/10/04 08:23:42;;;;;;;12.80;5.00;;;14.20;1.00;;;;;;5051469;28;20186;-73
2023/10/04 08:26:17;;;;;;;6.97;4.57;;;14.30;1.00;;;;;;5047718;28;20540;-69
2023/10/04 08:28:43;;;;;;;10.37;4.67;;;14.40;1.00;;;;;;5055170;28;20190;-69
2023/10/04 08:31:13;;;;;;;8.50;3.00;;;14.50;1.00;;;;;;5051103;28;20975;-75
2023/10/04 08:33:43;;;;;;;12.10;3.10;;;14.60;1.00;;;;;;5052196;28;20433;-76
2023/10/04 08:36:14;;;;;;;7.50;3.83;;;14.70;1.00;;;;;;5050660;28;20453;-72
2023/10/04 08:38:41;;;;;;;14.53;3.60;;;14.70;1.00;;;;;;5051839;28;20504;-75
2023/10/04 08:41:07;;;;;;;10.83;4.00;;;14.80;1.00;;;;;;5051955;28;20568;-70
2023/10/04 08:43:33;;;;;;;9.63;3.53;;;14.80;1.00;;;;;;5050764;28;20527;-74
2023/10/04 08:45:59;;;;;;;9.37;3.87;;;14.90;1.00;;;;;;5032619;28;20292;-71
2023/10/04 08:48:29;;;;;;;5.87;3.60;;;14.80;99.90;;;;;;5052872;28;20167;-70
2023/10/04 08:51:40;;;;;;;6.23;3.07;;;14.90;99.90;;;;;;5046091;28;20981;-75
2023/10/04 08:54:13;;;;;;;7.43;2.80;;;15.00;99.90;;;;;;5051102;28;20409;-70
2023/10/04 08:56:51;;;;;;;11.43;3.07;;;15.10;99.90;;;;;;5050479;28;20445;-71
2023/10/04 08:59:18;;;;;;;12.67;3.57;;;15.10;99.90;;;;;;5052714;28;20397;-75
2023/10/04 09:01:46;;;;;;;9.00;3.00;;;15.00;99.90;;;;;;5052808;28;20432;-73
2023/10/04 09:04:13;;;;;;;6.43;2.90;;;15.10;99.90;;;;;;5049816;28;20401;-73
2023/10/04 09:06:42;;;;;;;8.97;2.83;;;15.20;99.90;;;;;;5051962;28;20983;-73
2023/10/04 09:09:15;;;;;;;8.97;2.90;;;15.50;99.90;;;;;;5052529;28;20536;-76
2023/10/04 09:11:41;;;;;;;14.77;3.17;;;15.80;99.90;;;;;;5033085;28;20465;-72
2023/10/04 09:14:08;;;;;;;10.90;3.33;;;16.00;99.90;;;;;;5048362;28;20430;-75
2023/10/04 09:16:34;;;;;;;8.17;3.40;;;16.20;99.90;;;;;;5064972;28;20452;-74
2023/10/04 09:19:07;;;;;;;12.73;3.43;;;16.10;99.90;;;;;;5051264;28;20579;-75
2023/10/04 09:21:36;;;;;;;8.00;3.47;;;15.90;99.90;;;;;;5048687;28;20432;-74
2023/10/04 09:24:13;;;;;;;11.83;3.43;;;16.10;99.90;;;;;;5047088;28;20472;-76
2023/10/04 09:26:59;;;;;;;12.07;3.40;;;16.40;99.90;;;;;;5048425;28;20472;-75
2023/10/04 09:29:36;;;;;;;9.73;3.77;;;16.50;99.90;;;;;;5054076;28;20570;-76
2023/10/04 09:32:03;;;;;;;13.03;3.83;;;16.80;99.90;;;;;;5054463;28;20421;-77
2023/10/04 09:34:29;;;;;;;9.83;3.23;;;17.00;99.90;;;;;;5052598;28;20417;-74
2023/10/04 09:36:56;;;;;;;10.70;3.63;;;17.30;99.90;;;;;;5054175;28;20432;-76
2023/10/04 09:39:24;;;;;;;9.93;3.63;;;17.60;99.90;;;;;;5053527;28;20837;-76
2023/10/04 09:41:51;;;;;;;11.43;3.60;;;17.70;99.90;;;;;;5054336;28;21004;-73
2023/10/04 09:44:26;;;;;;;8.20;2.57;;;17.60;99.90;;;;;;5053706;28;20920;-74
2023/10/04 09:46:54;;;;;;;5.97;2.30;;;17.30;86.80;;;;;;5053416;28;20428;-75
2023/10/04 09:49:24;;;;;;;12.10;3.47;;;17.00;79.00;;;;;;5051540;28;20461;-76
2023/10/04 09:51:53;;;;;;;10.30;3.47;;;16.80;78.10;;;;;;5053966;28;20587;-72
2023/10/04 09:54:19;;;;;;;7.63;2.60;;;16.40;52.80;;;;;;5054558;28;20398;-72
2023/10/04 09:56:49;;;;;;;11.30;3.50;;;16.30;57.50;;;;;;5053528;28;20451;-72
2023/10/04 09:59:19;;;;;;;11.60;4.30;;;16.10;62.20;;;;;;5054877;28;20444;-71
2023/10/04 10:01:48;;;;;;;7.87;5.33;;;16.00;63.40;;;;;;5049631;28;20479;-72
2023/10/04 10:04:22;;;;;;;7.77;3.53;;;16.00;51.90;;;;;;5035506;28;20914;-72
2023/10/04 10:06:57;;;;;;;9.67;3.67;;;16.00;24.60;;;;;;5050673;28;20452;-76
2023/10/04 10:09:25;;;;;;;6.30;3.23;;;16.20;26.30;;;;;;5054273;28;20464;-73
2023/10/04 10:11:53;;;;;;;9.20;3.60;;;16.70;13.00;;;;;;5053614;28;20522;-75
2023/10/04 10:14:22;;;;;;;8.60;2.40;;;17.20;14.10;;;;;;5052226;28;20992;-75
2023/10/04 10:16:54;;;;;;;10.23;3.00;;;17.40;1.00;;;;;;5052910;28;20541;-76
2023/10/04 10:19:23;;;;;;;9.90;3.07;;;17.20;1.00;;;;;;5050109;28;20461;-74
2023/10/04 10:22:15;;;;;;;6.47;3.03;;;16.80;1.00;;;;;;5054314;28;20435;-72
2023/10/04 10:24:48;;;;;;;10.57;3.47;;;16.50;1.00;;;;;;5053109;28;20433;-75
2023/10/04 10:27:18;;;;;;;10.67;3.83;;;16.30;1.00;;;;;;5051813;28;20440;-73
2023/10/04 10:29:46;;;;;;;13.20;4.80;;;16.20;1.00;;;;;;5055104;28;20453;-75
2023/10/04 10:32:20;;;;;;;17.73;2.87;;;16.20;1.00;;;;;;5051184;28;20479;-72
2023/10/04 10:34:49;;;;;;;11.20;3.80;;;16.30;1.00;;;;;;5049182;28;20455;-74
2023/10/04 10:37:22;;;;;;;17.53;3.50;;;16.30;1.00;;;;;;5053311;28;20475;-75
2023/10/04 10:39:56;;;;;;;9.80;4.70;;;16.30;1.00;;;;;;5055005;28;20405;-75
2023/10/04 10:42:22;;;;;;;11.13;4.07;;;16.60;1.00;;;;;;5054935;28;20456;-75
2023/10/04 10:44:50;;;;;;;16.90;4.10;;;17.00;1.00;;;;;;5054002;28;20440;-73
2023/10/04 10:47:25;;;;;;;12.63;3.60;;;17.10;1.00;;;;;;5053763;28;21053;-73
2023/10/04 10:49:57;;;;;;;7.50;3.00;;;17.20;1.00;;;;;;5041489;28;20457;-72
2023/10/04 10:52:26;;;;;;;9.03;3.70;;;17.20;1.00;;;;;;5054283;28;20492;-77
2023/10/04 10:54:56;;;;;;;8.33;2.97;;;17.10;1.00;;;;;;5053446;28;20441;-75
2023/10/04 10:57:28;;;;;;;9.40;3.13;;;17.10;1.00;;;;;;5054606;28;20464;-73
2023/10/04 10:59:58;;;;;;;7.57;4.20;;;17.20;1.00;;;;;;5054594;28;20410;-73
2023/10/04 11:02:25;;;;;;;11.77;3.93;;;17.30;1.00;;;;;;5053569;28;20428;-73
2023/10/04 11:04:52;;;;;;;9.80;4.27;;;17.40;1.00;;;;;;5052670;28;20449;-73
2023/10/04 11:07:21;;;;;;;9.13;3.10;;;17.50;1.00;;;;;;5035877;28;20909;-74
2023/10/04 11:09:51;;;;;;;9.23;3.50;;;17.60;1.00;;;;;;5054119;28;20445;-76
2023/10/04 11:12:18;;;;;;;7.97;3.27;;;17.70;1.00;;;;;;5053811;28;20447;-76
2023/10/04 11:14:44;;;;;;;6.30;2.70;;;17.70;1.00;;;;;;5052293;28;20467;-73
2023/10/04 11:17:10;;;;;;;12.83;3.43;;;17.70;1.00;;;;;;5053196;28;20818;-75
2023/10/04 11:19:36;;;;;;;10.87;3.43;;;17.80;1.00;;;;;;5053234;28;20520;-74
2023/10/04 11:22:03;;;;;;;7.27;2.97;;;17.80;1.00;;;;;;5054150;28;20504;-75
2023/10/04 11:24:29;;;;;;;7.67;3.03;;;17.70;1.00;;;;;;5053198;28;20941;-74
2023/10/04 11:26:58;;;;;;;7.27;3.70;;;17.70;1.00;;;;;;5052949;28;20984;-72
2023/10/04 11:29:26;;;;;;;6.27;3.20;;;17.70;1.00;;;;;;5053069;28;20441;-77
2023/10/04 11:31:53;;;;;;;11.67;2.97;;;17.90;1.00;;;;;;5053699;28;20402;-74
2023/10/04 11:34:18;;;;;;;7.43;3.37;;;18.10;1.00;;;;;;5051123;28;20453;-74
2023/10/04 11:36:46;;;;;;;4.80;3.57;;;18.30;1.00;;;;;;5053851;28;20448;-74
2023/10/04 11:39:18;;;;;;;7.80;3.30;;;18.50;1.00;;;;;;5053912;28;20159;-75
2023/10/04 11:41:50;;;;;;;8.93;3.77;;;18.50;1.00;;;;;;5053874;28;20420;-75
2023/10/04 11:44:18;;;;;;;10.13;3.10;;;18.30;1.00;;;;;;5051851;28;20531;-74
2023/10/04 11:46:58;;;;;;;12.67;3.60;;;18.20;1.00;;;;;;5052185;28;20449;-75
2023/10/04 11:49:28;;;;;;;6.37;3.87;;;17.90;1.00;;;;;;5052467;28;20452;-76
2023/10/04 11:51:58;;;;;;;9.73;2.93;;;17.70;1.00;;;;;;5053551;28;20396;-73
2023/10/04 11:54:26;;;;;;;11.93;3.13;;;17.50;1.00;;;;;;5052800;28;20425;-74
2023/10/04 11:56:52;;;;;;;4.30;2.30;;;17.30;1.00;;;;;;5053751;28;20397;-74
2023/10/04 11:59:29;;;;;;;10.43;3.20;;;17.10;1.00;;;;;;5053414;28;20874;-76
2023/10/04 12:01:55;;;;;;;9.43;3.60;;;17.10;1.00;;;;;;5051163;28;20425;-74
2023/10/04 12:04:20;;;;;;;3.70;2.30;;;17.30;1.00;;;;;;5052683;28;20422;-76
2023/10/04 12:07:09;;;;;;;16.63;3.20;;;17.50;1.00;;;;;;5052684;28;20418;-77
2023/10/04 12:09:36;;;;;;;10.00;3.90;;;17.60;1.00;;;;;;5053261;28;20682;-78
2023/10/04 12:12:03;;;;;;;6.00;3.93;;;17.70;1.00;;;;;;5051618;28;20487;-72
2023/10/04 12:14:32;;;;;;;11.13;4.07;;;17.90;1.00;;;;;;5052188;28;21019;-73
2023/10/04 12:17:04;;;;;;;10.30;2.70;;;18.00;1.00;;;;;;5052420;28;20428;-72
2023/10/04 12:19:32;;;;;;;8.03;3.70;;;18.10;1.00;;;;;;5053242;28;20409;-71
2023/10/04 12:22:11;;;;;;;9.00;3.70;;;18.20;1.00;;;;;;5052987;28;20401;-73
2023/10/04 12:24:41;;;;;;;8.00;3.67;;;18.40;1.00;;;;;;5032620;28;20421;-71
2023/10/04 12:27:08;;;;;;;9.17;3.13;;;18.80;1.00;;;;;;5051506;28;20869;-73
2023/10/04 12:29:36;;;;;;;12.33;2.93;;;19.20;1.00;;;;;;5053037;28;20531;-73
2023/10/04 12:32:02;;;;;;;5.57;3.57;;;19.20;1.00;;;;;;5051750;28;20900;-71
2023/10/04 12:34:29;;;;;;;50.93;8.70;;;19.60;1.00;;;;;;5051899;28;20464;-72
2023/10/04 12:36:56;;;;;;;381.20;36.60;;;20.20;1.00;;;;;;5052968;28;20835;-73
2023/10/04 12:39:22;;;;;;;81.57;11.73;;;21.00;1.00;;;;;;5052870;28;20479;-73
2023/10/04 12:41:49;;;;;;;6.97;3.20;;;21.90;1.00;;;;;;5050757;28;20920;-74
2023/10/04 12:44:18;;;;;;;24.97;5.80;;;22.40;1.00;;;;;;5052090;28;20413;-73
2023/10/04 12:46:45;;;;;;;15.00;4.37;;;22.60;99.90;;;;;;5051443;28;20449;-73
2023/10/04 12:49:11;;;;;;;17.77;4.70;;;22.30;99.90;;;;;;5052701;28;20449;-73
2023/10/04 12:51:37;;;;;;;13.90;4.13;;;22.00;99.90;;;;;;5052796;28;20428;-73
2023/10/04 12:54:08;;;;;;;14.40;3.90;;;21.40;99.90;;;;;;5051805;28;20523;-73
2023/10/04 12:56:36;;;;;;;6.37;3.20;;;21.10;99.90;;;;;;5052808;28;20214;-73
2023/10/04 12:59:03;;;;;;;7.93;3.57;;;21.40;99.90;;;;;;5050903;28;20424;-74
2023/10/04 13:01:29;;;;;;;3.27;2.40;;;21.40;99.90;;;;;;5056428;28;20401;-74